Archival Weather

Tokyo Intl

Tokyo, Japan (RJTT)

Report from: Saturday, March 18, 2023 2:00 AM JST
Current time: Wednesday, May 29, 2024 6:02 PM JST

Current weather – Weather history – Daily summaries
Weather forecast

Present weatherLight rain
Temperature10.0°C (50.0°F)
Wind chill6.7°C (44.1°F)
Dew point8.0°C (46.4°F)
Winds 15 kts (7.7 m/s, 17.3 mph) North (10°)
Visibility6.2 mi. (10 km)
Clouds Few clouds 500 ft. (152 m)
Few clouds 800 ft. (244 m)
Ceiling: Broken clouds 800 ft. (244 m)
Broken clouds 1,000 ft. (305 m)
Altimeter30.06 in.Hg (1018 mB)
Relative humidity87 %
Density altitude-605 ft. (-185 m)
Flight conditions Instrument Meteorological Conditions
Raw dataRJTT 171700Z 01015KT 9999 -RA FEW008 BKN010 10/08 Q1018 TEMPO FEW005 BKN008 RMK 1ST008 7ST010 A3008
An error has occurred. This application may no longer respond until reloaded. Reload 🗙